Etusivu
METAR-TAF:

METAR-TAF

Lentoasemat :

Tromssan lentoasema

Tromssa, Norja

Leveyspiiri: 69-41N, Pituuspiiri: 018-55E, korkeus merenpinnasta: 1 m

Tämänhetkinen sää

Tämä raportti tehtiin 13 minuuttia sitten, kello 22.50 UTC
Tuuli 4 kn etelästä/lounaasta
Lämpötila 7°C
Kosteus 70%
Ilmanpaine 1024 hPa
Näkyvyys 10 km tai enemmän
Hajonneita pilviä 4500 ft:n korkeudessa

METAR: ENTC 242250Z 20004KT 9999 BKN045 07/02 Q1024 RMK WIND 2600FT 21016KT

Aika: 01:03 (23:03 UTC)

Sääennuste

Ennuste voimassa 24. päivästä klo 18 UTC - 25. päivään klo 18 UTC
Tuuli 8 kn lounaasta
Näkyvyys 10 km tai enemmän
Muutamia pilviä 2000 ft:n korkeudessa
Hajonneita pilviä 6000 ft:n korkeudessa
Tulossa
25. päivästä klo 08 UTC - 25. päivään klo 10 UTC
Tuuli 20 kn lounaasta
Ajoittain
25. päivästä klo 14 UTC - 25. päivään klo 18 UTC
Tuuli 25 kn lännestä/lounaasta puuskistuen 35 kn:hen

TAF: ENTC 2418/2518 22008KT 9999 FEW020 BKN060 BECMG 2508/2510 23020KT TEMPO 2514/2518 24025G35KT

Säähavainnot ja -ennusteet yli 4000 lentoasemalta (METAR- ja TAF-raportit).

Käytössä olevat sääasemat on merkitty karttaan keltaisilla ja punaisilla pisteillä.

Aseta hiiri pisteen päälle nähdäksesi sääaseman nimen.

Klikkaa sitten nähdäksesi säähavainnot ja -ennusteet.

Kartan vaihtaminen: klikkaa mustalla rastilla varustettuja vihreitä pisteitä, niin voit zoomata sisään; viivalla varustettua vihreää pistettä, niin voit zoomata ulos tai vihreitä nuolia, niin pääset viereisille kartoille.


METAR-TAF: